createdAt,value
2017-09-12T00:00:27.654Z,14.80
2017-09-12T00:02:55.713Z,14.80
2017-09-12T00:05:23.769Z,14.80
2017-09-12T00:07:52.658Z,14.80
2017-09-12T00:10:31.231Z,14.80
2017-09-12T00:12:59.317Z,14.80
2017-09-12T00:15:27.396Z,14.80
2017-09-12T00:17:55.466Z,14.80
2017-09-12T00:20:23.519Z,14.80
2017-09-12T00:22:51.600Z,14.80
2017-09-12T00:25:19.643Z,14.80
2017-09-12T00:27:48.818Z,14.80
2017-09-12T00:30:16.881Z,14.80
2017-09-12T00:32:44.957Z,14.80
2017-09-12T00:35:13.047Z,14.80
2017-09-12T00:37:41.096Z,14.80
2017-09-12T00:40:09.172Z,14.80
2017-09-12T00:42:37.253Z,14.80
2017-09-12T00:45:05.310Z,14.80
2017-09-12T00:47:33.388Z,14.80
2017-09-12T00:50:01.608Z,14.80
2017-09-12T00:52:29.695Z,14.70
2017-09-12T00:54:57.756Z,14.70
2017-09-12T00:57:25.803Z,14.70
2017-09-12T00:59:53.872Z,14.70
2017-09-12T01:02:21.925Z,14.70
2017-09-12T01:04:50.776Z,14.60
2017-09-12T01:07:18.826Z,14.60
2017-09-12T01:09:46.907Z,14.60
2017-09-12T01:12:14.977Z,14.50
2017-09-12T01:14:43.012Z,14.50
2017-09-12T01:17:11.111Z,14.40
2017-09-12T01:19:39.145Z,14.40
2017-09-12T01:22:07.241Z,14.40
2017-09-12T01:24:35.318Z,14.40
2017-09-12T01:27:03.374Z,14.30
2017-09-12T01:29:31.442Z,14.30
2017-09-12T01:32:00.249Z,14.20
2017-09-12T01:34:28.322Z,14.20
2017-09-12T01:36:56.369Z,14.20
2017-09-12T01:39:24.429Z,14.20
2017-09-12T01:41:52.495Z,14.20
2017-09-12T01:44:20.536Z,14.10
2017-09-12T01:46:48.645Z,14.10
2017-09-12T01:49:16.693Z,14.10
2017-09-12T01:51:44.778Z,14.10
2017-09-12T01:54:12.832Z,14.10
2017-09-12T01:56:40.913Z,14.00
2017-09-12T01:59:08.968Z,14.00
2017-09-12T02:01:37.043Z,14.00
2017-09-12T02:04:05.100Z,14.00
2017-09-12T02:06:33.138Z,14.00
2017-09-12T02:09:01.968Z,14.00
2017-09-12T02:11:30.013Z,14.00
2017-09-12T02:13:58.129Z,14.10
2017-09-12T02:16:26.177Z,14.10
2017-09-12T02:18:54.229Z,14.10
2017-09-12T02:21:22.303Z,14.10
2017-09-12T02:23:50.382Z,14.20
2017-09-12T02:26:18.457Z,14.20
2017-09-12T02:28:46.528Z,14.20
2017-09-12T02:31:14.600Z,14.20
2017-09-12T02:33:42.664Z,14.20
2017-09-12T02:36:10.744Z,14.20
2017-09-12T02:38:38.813Z,14.20
2017-09-12T02:41:06.879Z,14.10
2017-09-12T02:43:34.956Z,14.00
2017-09-12T02:46:03.031Z,14.00
2017-09-12T02:48:31.089Z,14.00
2017-09-12T02:50:59.178Z,13.90
2017-09-12T02:53:27.218Z,13.90
2017-09-12T02:55:55.299Z,13.90
2017-09-12T02:58:23.351Z,13.80
2017-09-12T03:00:51.410Z,13.80
2017-09-12T03:03:19.467Z,13.80
2017-09-12T03:05:47.533Z,13.70
2017-09-12T03:08:15.618Z,13.70
2017-09-12T03:10:43.662Z,13.70
2017-09-12T03:13:11.746Z,13.70
2017-09-12T03:15:39.796Z,13.70
2017-09-12T03:18:07.902Z,13.70
2017-09-12T03:20:36.742Z,13.70
2017-09-12T03:23:05.562Z,13.70
2017-09-12T03:25:33.637Z,13.70
2017-09-12T03:28:01.701Z,13.70
2017-09-12T03:30:29.813Z,13.70
2017-09-12T03:32:57.893Z,13.70
2017-09-12T03:35:25.965Z,13.80
2017-09-12T03:37:54.035Z,13.80
2017-09-12T03:40:22.117Z,13.80
2017-09-12T03:42:50.246Z,13.80
2017-09-12T03:45:18.318Z,13.80
2017-09-12T03:47:46.394Z,13.80
2017-09-12T03:50:14.513Z,13.80
2017-09-12T03:52:42.583Z,13.80
2017-09-12T03:55:10.688Z,13.80
2017-09-12T03:57:39.557Z,13.80
2017-09-12T04:00:07.613Z,13.80
2017-09-12T04:02:35.686Z,13.80
2017-09-12T04:05:03.767Z,13.80
2017-09-12T04:07:31.900Z,13.80
2017-09-12T04:09:59.949Z,13.80
2017-09-12T04:12:28.018Z,13.80
2017-09-12T04:14:56.456Z,13.80
2017-09-12T04:17:24.521Z,13.80
2017-09-12T04:19:52.591Z,13.80
2017-09-12T04:22:20.740Z,13.80
2017-09-12T04:24:48.814Z,13.70
2017-09-12T04:27:16.884Z,13.70
2017-09-12T04:29:44.947Z,13.70
2017-09-12T04:32:13.025Z,13.70
2017-09-12T04:34:41.110Z,13.70
2017-09-12T04:37:09.171Z,13.70
2017-09-12T04:39:37.233Z,13.70
2017-09-12T04:42:05.326Z,13.60
2017-09-12T04:44:33.475Z,13.60
2017-09-12T04:47:01.514Z,13.60
2017-09-12T04:49:29.601Z,13.60
2017-09-12T04:51:57.638Z,13.60
2017-09-12T04:54:25.702Z,13.60
2017-09-12T04:56:53.789Z,13.60
2017-09-12T04:59:21.850Z,13.60
2017-09-12T05:01:49.899Z,13.60
2017-09-12T05:04:17.963Z,13.70
2017-09-12T05:06:46.044Z,13.70
2017-09-12T05:09:14.131Z,13.80
2017-09-12T05:11:42.198Z,13.80
2017-09-12T05:14:10.271Z,13.90
2017-09-12T05:16:38.328Z,13.90
2017-09-12T05:19:06.421Z,13.90
2017-09-12T05:21:34.498Z,13.90
2017-09-12T05:24:02.590Z,13.90
2017-09-12T05:26:30.631Z,14.00
2017-09-12T05:28:58.691Z,14.00
2017-09-12T05:31:26.793Z,14.00
2017-09-12T05:33:54.881Z,14.00
2017-09-12T05:36:22.943Z,14.10
2017-09-12T05:38:51.006Z,14.10
2017-09-12T05:41:19.089Z,14.10
2017-09-12T05:43:47.141Z,14.10
2017-09-12T05:46:15.199Z,14.10
2017-09-12T05:48:43.290Z,14.20
2017-09-12T05:51:11.441Z,14.20
2017-09-12T05:53:39.514Z,14.20
2017-09-12T05:56:07.592Z,14.20
2017-09-12T05:58:35.674Z,14.20
2017-09-12T06:01:03.726Z,14.30
2017-09-12T06:06:38.487Z,14.50
2017-09-12T06:09:06.573Z,14.50
2017-09-12T06:11:34.641Z,14.60
2017-09-12T06:14:02.700Z,14.60
2017-09-12T06:16:30.802Z,14.70
2017-09-12T06:18:58.854Z,14.80
2017-09-12T06:21:26.925Z,14.80
2017-09-12T06:23:55.013Z,14.90
2017-09-12T06:26:23.064Z,14.90
2017-09-12T06:28:51.144Z,14.80
2017-09-12T06:31:19.187Z,14.90
2017-09-12T06:33:47.315Z,14.90
2017-09-12T06:36:15.399Z,15.00
2017-09-12T06:38:43.518Z,15.00
2017-09-12T06:41:11.570Z,15.00
2017-09-12T06:43:39.656Z,15.10
2017-09-12T06:46:07.725Z,15.20
2017-09-12T06:48:35.865Z,15.30
2017-09-12T06:51:04.010Z,15.40
2017-09-12T06:53:32.082Z,15.50
2017-09-12T06:56:00.172Z,15.60
2017-09-12T06:58:28.254Z,15.70
2017-09-12T07:00:56.317Z,15.70
2017-09-12T07:03:24.405Z,15.70
2017-09-12T07:05:52.482Z,15.80
2017-09-12T07:08:20.556Z,15.90
2017-09-12T07:10:48.640Z,15.90
2017-09-12T07:13:17.485Z,16.10
2017-09-12T07:15:46.327Z,16.20
2017-09-12T07:18:15.191Z,16.30
2017-09-12T07:20:43.253Z,16.30
2017-09-12T07:23:11.365Z,16.40
2017-09-12T07:25:40.328Z,16.50
2017-09-12T07:28:08.436Z,16.50
2017-09-12T07:30:36.509Z,16.50
2017-09-12T07:33:04.599Z,16.50
2017-09-12T07:35:32.690Z,16.50
2017-09-12T07:38:00.763Z,16.60
2017-09-12T07:40:28.815Z,16.60
2017-09-12T07:42:56.896Z,16.70
2017-09-12T07:45:24.984Z,16.70
2017-09-12T07:47:53.069Z,16.70
2017-09-12T07:50:21.215Z,16.70
2017-09-12T07:52:49.270Z,16.70
2017-09-12T07:55:17.321Z,16.60
2017-09-12T07:57:46.190Z,16.50
2017-09-12T08:00:14.263Z,16.40
2017-09-12T08:02:42.311Z,16.50
2017-09-12T08:05:10.394Z,16.50
2017-09-12T08:07:39.968Z,16.50
2017-09-12T08:10:08.058Z,16.50
2017-09-12T08:12:36.151Z,16.60
2017-09-12T08:15:04.226Z,16.60
2017-09-12T08:17:32.266Z,16.60
2017-09-12T08:20:00.333Z,16.70
2017-09-12T08:22:28.403Z,16.70
2017-09-12T08:24:56.679Z,16.80
2017-09-12T08:27:24.711Z,16.90
2017-09-12T08:29:53.533Z,17.00
2017-09-12T08:32:21.777Z,16.90
2017-09-12T08:34:50.594Z,17.00
2017-09-12T08:37:18.689Z,17.00
2017-09-12T08:39:46.753Z,17.10
2017-09-12T08:42:15.011Z,17.10
2017-09-12T08:44:43.889Z,17.20
2017-09-12T08:47:11.925Z,17.20
2017-09-12T08:49:40.042Z,17.20
2017-09-12T08:52:08.099Z,17.20
2017-09-12T08:54:36.954Z,17.20
2017-09-12T08:57:05.038Z,17.20
2017-09-12T08:59:33.094Z,17.10
2017-09-12T09:02:01.179Z,17.20
2017-09-12T09:04:29.310Z,17.20
2017-09-12T09:06:57.349Z,17.10
2017-09-12T09:09:25.435Z,17.90
2017-09-12T09:11:54.354Z,17.00
2017-09-12T09:14:22.462Z,17.00
2017-09-12T09:16:50.550Z,17.00
2017-09-12T09:19:18.646Z,17.00
2017-09-12T09:21:46.708Z,17.10
2017-09-12T09:24:14.781Z,17.20
2017-09-12T09:26:42.858Z,17.30
2017-09-12T09:29:10.942Z,17.40
2017-09-12T09:31:39.026Z,17.50
2017-09-12T09:34:07.101Z,17.50
2017-09-12T09:36:35.187Z,17.60
2017-09-12T09:39:03.245Z,17.70
2017-09-12T09:41:31.297Z,17.80
2017-09-12T09:43:59.370Z,18.00
2017-09-12T09:46:27.423Z,18.10
2017-09-12T09:48:56.273Z,18.10
2017-09-12T09:51:24.327Z,18.10
2017-09-12T09:53:52.448Z,18.20
2017-09-12T09:56:20.492Z,18.20
2017-09-12T09:58:48.969Z,18.20
2017-09-12T10:01:17.057Z,18.20
2017-09-12T10:03:45.111Z,18.20
2017-09-12T10:06:13.206Z,18.30
2017-09-12T10:08:41.258Z,18.40
2017-09-12T10:11:09.325Z,18.50
2017-09-12T10:13:37.388Z,18.50
2017-09-12T10:16:05.455Z,18.60
2017-09-12T10:18:33.507Z,18.60
2017-09-12T10:21:02.341Z,18.60
2017-09-12T10:23:30.416Z,18.50
2017-09-12T10:25:58.620Z,18.70
2017-09-12T10:28:26.710Z,18.90
2017-09-12T10:30:54.782Z,19.00
2017-09-12T10:33:23.624Z,19.10
2017-09-12T10:35:51.675Z,19.20
2017-09-12T10:38:19.757Z,19.20
2017-09-12T10:40:47.830Z,19.10
2017-09-12T10:43:15.900Z,19.10
2017-09-12T10:45:43.953Z,19.10
2017-09-12T10:48:12.040Z,19.00
2017-09-12T10:50:40.121Z,19.00
2017-09-12T10:53:08.185Z,18.90
2017-09-12T10:55:36.232Z,18.70
2017-09-12T10:58:04.324Z,18.50
2017-09-12T11:00:32.376Z,18.40
2017-09-12T11:03:00.430Z,18.40
2017-09-12T11:05:28.509Z,18.40
2017-09-12T11:07:56.595Z,18.40
2017-09-12T11:10:24.654Z,18.40
2017-09-12T11:12:54.620Z,18.40
2017-09-12T11:15:22.670Z,18.40
2017-09-12T11:17:50.737Z,18.40
2017-09-12T11:20:18.789Z,18.50
2017-09-12T11:22:46.857Z,18.70
2017-09-12T11:25:14.901Z,18.80
2017-09-12T11:27:42.973Z,19.00
2017-09-12T11:30:11.031Z,19.10
2017-09-12T11:32:39.091Z,19.10
2017-09-12T11:35:07.175Z,19.20
2017-09-12T11:37:35.270Z,19.30
2017-09-12T11:40:03.340Z,19.40
2017-09-12T11:42:31.429Z,19.40
2017-09-12T11:44:59.474Z,19.30
2017-09-12T11:47:27.561Z,19.20
2017-09-12T11:49:55.658Z,19.10
2017-09-12T11:52:23.722Z,18.90
2017-09-12T11:54:52.558Z,18.80
2017-09-12T11:57:20.770Z,18.70
2017-09-12T11:59:48.826Z,18.80
2017-09-12T12:02:16.884Z,18.80
2017-09-12T12:04:44.930Z,18.80
2017-09-12T12:07:12.997Z,18.80
2017-09-12T12:09:41.126Z,18.70
2017-09-12T12:12:09.358Z,18.70
2017-09-12T12:14:37.464Z,18.70
2017-09-12T12:17:05.550Z,18.70
2017-09-12T12:19:33.617Z,18.80
2017-09-12T12:22:02.005Z,18.80
2017-09-12T12:24:30.086Z,18.80
2017-09-12T12:26:58.206Z,18.90
2017-09-12T12:29:26.273Z,18.90
2017-09-12T12:31:54.372Z,18.90
2017-09-12T12:34:22.415Z,18.90
2017-09-12T12:36:50.502Z,19.00
2017-09-12T12:39:18.575Z,19.00
2017-09-12T12:41:46.636Z,19.10
2017-09-12T12:44:15.476Z,19.20
2017-09-12T12:46:43.527Z,19.20
2017-09-12T12:49:11.587Z,19.20
2017-09-12T12:51:39.809Z,19.20
2017-09-12T12:54:07.878Z,19.20
2017-09-12T12:56:36.002Z,19.20
2017-09-12T12:59:04.065Z,19.20
2017-09-12T13:01:32.152Z,19.30
2017-09-12T13:04:00.276Z,19.30
2017-09-12T13:06:28.316Z,19.40
2017-09-12T13:08:56.401Z,19.40
2017-09-12T13:11:24.473Z,19.40
2017-09-12T13:13:52.534Z,19.40
2017-09-12T13:16:20.667Z,19.40
2017-09-12T13:18:48.714Z,19.50
2017-09-12T13:21:16.954Z,19.50
2017-09-12T13:23:45.045Z,19.60
2017-09-12T13:26:13.116Z,19.70
2017-09-12T13:28:41.267Z,19.80
2017-09-12T13:31:09.336Z,19.90
2017-09-12T13:33:37.409Z,19.90
2017-09-12T13:36:05.476Z,19.90
2017-09-12T13:38:33.833Z,19.90
2017-09-12T13:41:02.652Z,19.80
2017-09-12T13:43:30.742Z,19.80
2017-09-12T13:45:58.825Z,19.70
2017-09-12T13:48:26.892Z,19.60
2017-09-12T13:50:54.974Z,19.50
2017-09-12T13:53:23.066Z,19.50
2017-09-12T13:55:51.143Z,19.40
2017-09-12T13:58:19.208Z,19.40
2017-09-12T14:00:47.325Z,19.30
2017-09-12T14:03:15.712Z,19.30
2017-09-12T14:05:43.811Z,19.40
2017-09-12T14:08:11.894Z,19.50
2017-09-12T14:10:40.035Z,19.60
2017-09-12T14:13:08.147Z,19.60
2017-09-12T14:15:36.202Z,19.60
2017-09-12T14:18:04.262Z,19.60
2017-09-12T14:20:32.354Z,19.50
2017-09-12T14:23:00.394Z,19.40
2017-09-12T14:25:28.467Z,19.40
2017-09-12T14:27:56.557Z,19.40
2017-09-12T14:30:25.613Z,19.70
2017-09-12T14:32:53.684Z,19.70
2017-09-12T14:35:21.771Z,19.80
2017-09-12T14:37:49.812Z,19.90
2017-09-12T14:40:17.888Z,19.90
2017-09-12T14:42:45.975Z,19.90
2017-09-12T14:45:14.074Z,19.90
2017-09-12T14:47:42.136Z,19.90
2017-09-12T14:50:10.235Z,19.90
2017-09-12T14:52:38.296Z,19.80
2017-09-12T14:55:06.412Z,19.80
2017-09-12T14:57:34.474Z,19.90
2017-09-12T15:00:02.938Z,19.90
2017-09-12T15:02:30.998Z,19.90
2017-09-12T15:04:59.070Z,19.90
2017-09-12T15:07:27.123Z,19.80
2017-09-12T15:09:55.187Z,19.80
2017-09-12T15:12:23.270Z,19.80
2017-09-12T15:14:51.391Z,19.70
2017-09-12T15:17:20.220Z,19.70
2017-09-12T15:19:48.330Z,19.60
2017-09-12T15:22:16.382Z,19.70
2017-09-12T15:24:44.457Z,19.60
2017-09-12T15:27:12.517Z,19.60
2017-09-12T15:29:40.612Z,19.60
2017-09-12T15:32:08.678Z,19.60
2017-09-12T15:34:36.776Z,19.60
2017-09-12T15:37:04.877Z,19.60
2017-09-12T15:39:32.934Z,19.60
2017-09-12T15:42:00.999Z,19.50
2017-09-12T15:44:30.092Z,19.50
2017-09-12T15:46:58.168Z,19.50
2017-09-12T15:49:26.218Z,19.40
2017-09-12T15:51:54.290Z,19.40
2017-09-12T15:54:22.402Z,19.30
2017-09-12T15:56:51.401Z,19.30
2017-09-12T15:59:20.238Z,19.10
2017-09-12T16:01:48.302Z,19.10
2017-09-12T16:04:16.378Z,18.80
2017-09-12T16:06:44.465Z,18.20
2017-09-12T16:09:12.582Z,17.50
2017-09-12T16:11:40.693Z,16.70
2017-09-12T16:14:08.751Z,16.20
2017-09-12T16:16:36.831Z,15.80
2017-09-12T16:19:04.902Z,15.60
2017-09-12T16:21:32.975Z,15.40
2017-09-12T16:24:01.070Z,15.40
2017-09-12T16:26:29.115Z,15.40
2017-09-12T16:28:57.195Z,15.50
2017-09-12T16:31:25.272Z,15.60
2017-09-12T16:33:53.552Z,15.80
2017-09-12T16:36:21.651Z,15.90
2017-09-12T16:38:49.734Z,15.90
2017-09-12T16:41:17.844Z,16.00
2017-09-12T16:43:46.033Z,16.00
2017-09-12T16:46:14.100Z,16.00
2017-09-12T16:48:42.244Z,16.00
2017-09-12T16:51:10.326Z,16.00
2017-09-12T16:53:38.559Z,16.00
2017-09-12T16:56:06.655Z,16.00
2017-09-12T16:58:34.742Z,16.00
2017-09-12T17:01:02.854Z,16.00
2017-09-12T17:03:31.093Z,16.00
2017-09-12T17:05:59.155Z,16.00
2017-09-12T17:08:27.234Z,15.90
2017-09-12T17:10:55.326Z,15.90
2017-09-12T17:13:23.448Z,15.80
2017-09-12T17:15:51.584Z,15.80
2017-09-12T17:18:19.662Z,15.80
2017-09-12T17:20:47.731Z,15.80
2017-09-12T17:23:15.790Z,15.80
2017-09-12T17:25:43.938Z,15.80
2017-09-12T17:28:12.787Z,15.80
2017-09-12T17:30:40.828Z,15.80
2017-09-12T17:33:09.003Z,15.80
2017-09-12T17:35:37.270Z,15.70
2017-09-12T17:38:05.682Z,15.70
2017-09-12T17:40:34.028Z,15.70
2017-09-12T17:43:02.380Z,15.60
2017-09-12T17:45:30.759Z,15.50
2017-09-12T17:47:59.156Z,15.50
2017-09-12T17:50:27.502Z,15.50
2017-09-12T17:52:55.901Z,15.50
2017-09-12T17:55:24.281Z,15.40
2017-09-12T17:57:52.642Z,15.30
2017-09-12T18:00:21.743Z,15.20
2017-09-12T18:02:50.860Z,15.20
2017-09-12T18:05:19.255Z,15.10
2017-09-12T18:07:47.549Z,15.10
2017-09-12T18:10:15.694Z,15.10
2017-09-12T18:12:43.759Z,15.00
2017-09-12T18:15:11.801Z,15.00
2017-09-12T18:17:39.910Z,15.00
2017-09-12T18:20:07.977Z,15.00
2017-09-12T18:22:36.051Z,15.00
2017-09-12T18:25:04.236Z,15.00
2017-09-12T18:27:32.314Z,15.00
2017-09-12T18:30:00.359Z,15.00
2017-09-12T18:32:28.452Z,14.90
2017-09-12T18:34:56.523Z,15.00
2017-09-12T18:37:24.596Z,15.00
2017-09-12T18:39:52.735Z,15.00
2017-09-12T18:42:20.887Z,15.00
2017-09-12T18:44:49.036Z,15.00
2017-09-12T18:47:17.166Z,15.00
2017-09-12T18:49:45.233Z,15.10
2017-09-12T18:52:13.371Z,15.10
2017-09-12T18:54:41.477Z,15.10
2017-09-12T18:57:09.636Z,15.20
2017-09-12T18:59:37.725Z,15.20
2017-09-12T19:02:05.799Z,15.30
2017-09-12T19:04:33.917Z,15.40
2017-09-12T19:07:02.032Z,15.50
2017-09-12T19:09:30.122Z,15.50
2017-09-12T19:11:58.203Z,15.50
2017-09-12T19:14:26.283Z,15.60
2017-09-12T19:16:54.360Z,15.60
2017-09-12T19:19:22.481Z,15.60
2017-09-12T19:21:50.555Z,15.60
2017-09-12T19:24:18.751Z,15.40
2017-09-12T19:26:46.819Z,15.40
2017-09-12T19:29:14.902Z,15.30
2017-09-12T19:31:42.990Z,15.20
2017-09-12T19:34:11.085Z,15.20
2017-09-12T19:36:39.923Z,15.10
2017-09-12T19:39:08.048Z,15.10
2017-09-12T19:41:36.905Z,15.10
2017-09-12T19:44:05.020Z,15.10
2017-09-12T19:46:33.214Z,15.10
2017-09-12T19:49:01.272Z,15.00
2017-09-12T19:51:29.419Z,15.00
2017-09-12T19:53:57.553Z,15.00
2017-09-12T19:56:25.642Z,15.00
2017-09-12T19:58:53.724Z,15.00
2017-09-12T20:01:21.842Z,15.00
2017-09-12T20:03:51.389Z,15.10
2017-09-12T20:06:19.461Z,15.10
2017-09-12T20:08:47.558Z,15.10
2017-09-12T20:11:17.062Z,15.10
2017-09-12T20:13:46.289Z,15.10
2017-09-12T20:16:15.133Z,15.10
2017-09-12T20:18:43.214Z,15.10
2017-09-12T20:21:11.306Z,15.10
2017-09-12T20:23:39.389Z,15.10
2017-09-12T20:26:07.525Z,15.10
2017-09-12T20:28:35.611Z,15.10
2017-09-12T20:31:03.694Z,15.20
2017-09-12T20:33:31.771Z,15.40
2017-09-12T20:36:00.617Z,15.40
2017-09-12T20:38:28.724Z,15.40
2017-09-12T20:40:56.899Z,15.40
2017-09-12T20:43:24.993Z,15.30
2017-09-12T20:45:53.872Z,15.10
2017-09-12T20:48:21.977Z,15.10
2017-09-12T20:50:50.062Z,15.00
2017-09-12T20:53:18.142Z,15.00
2017-09-12T20:55:46.237Z,14.90
2017-09-12T20:58:14.337Z,14.80
2017-09-12T21:00:43.205Z,14.70
2017-09-12T21:03:11.250Z,14.70
2017-09-12T21:05:39.502Z,14.70
2017-09-12T21:08:07.596Z,14.70
2017-09-12T21:10:35.650Z,14.60
2017-09-12T21:13:03.735Z,14.70
2017-09-12T21:15:31.803Z,14.70
2017-09-12T21:17:59.912Z,14.70
2017-09-12T21:20:27.984Z,14.80
2017-09-12T21:22:56.642Z,14.80
2017-09-12T21:25:24.686Z,14.80
2017-09-12T21:27:52.770Z,14.80
2017-09-12T21:30:20.987Z,14.80
2017-09-12T21:32:49.061Z,14.80
2017-09-12T21:35:17.193Z,14.80
2017-09-12T21:37:45.254Z,14.80
2017-09-12T21:40:13.312Z,14.80
2017-09-12T21:42:41.407Z,14.80
2017-09-12T21:45:09.534Z,14.80
2017-09-12T21:47:37.602Z,14.90
2017-09-12T21:50:05.638Z,14.90
2017-09-12T21:52:33.753Z,14.90
2017-09-12T21:55:01.810Z,14.90
2017-09-12T21:57:29.893Z,14.90
2017-09-12T21:59:57.967Z,14.80
2017-09-12T22:02:26.035Z,14.80
2017-09-12T22:04:54.099Z,14.80
2017-09-12T22:07:22.183Z,14.70
2017-09-12T22:09:50.254Z,14.70
2017-09-12T22:12:18.308Z,14.60
2017-09-12T22:14:46.390Z,14.60
2017-09-12T22:17:14.454Z,14.60
2017-09-12T22:19:42.547Z,14.50
2017-09-12T22:22:10.616Z,14.50
2017-09-12T22:24:38.702Z,14.40
2017-09-12T22:27:06.771Z,14.40
2017-09-12T22:29:34.845Z,14.30
2017-09-12T22:32:02.946Z,14.30
2017-09-12T22:34:31.049Z,14.20
2017-09-12T22:36:59.139Z,14.10
2017-09-12T22:39:27.223Z,14.10
2017-09-12T22:41:55.289Z,14.00
2017-09-12T22:44:23.368Z,13.90
2017-09-12T22:46:51.503Z,13.90
2017-09-12T22:49:19.575Z,13.90
2017-09-12T22:51:47.649Z,13.80
2017-09-12T22:54:15.717Z,13.80
2017-09-12T22:56:43.796Z,13.80
2017-09-12T22:59:11.869Z,13.80
2017-09-12T23:01:39.974Z,13.80
2017-09-12T23:04:08.054Z,13.80
2017-09-12T23:06:36.166Z,13.80
2017-09-12T23:09:04.278Z,13.90
2017-09-12T23:11:34.372Z,13.90
2017-09-12T23:14:02.443Z,13.90
2017-09-12T23:16:30.498Z,14.00
2017-09-12T23:18:58.572Z,14.00
2017-09-12T23:21:26.633Z,14.10
2017-09-12T23:23:55.498Z,14.10
2017-09-12T23:26:23.705Z,14.00
2017-09-12T23:28:51.821Z,14.10
2017-09-12T23:31:19.898Z,14.10
2017-09-12T23:33:47.954Z,14.00
2017-09-12T23:36:16.249Z,14.00
2017-09-12T23:38:44.302Z,14.00
2017-09-12T23:41:12.358Z,13.90
2017-09-12T23:43:40.439Z,13.90
2017-09-12T23:46:08.498Z,13.80
2017-09-12T23:48:36.606Z,13.80
2017-09-12T23:51:04.676Z,13.80
2017-09-12T23:53:32.750Z,13.70
2017-09-12T23:56:00.803Z,13.70
2017-09-12T23:58:28.874Z,13.70
